Time;durP1;ratioP1;P1;durP2;ratioP2;P2;SDS_P1;SDS_P2;PMS_P1;PMS_P2;Temp;Humidity;BMP_temperature;BMP_pressure;BME280_temperature;BME280_humidity;BME280_pressure;Samples;Min_cycle;Max_cycle;Signal;HPM_P1;HPM_P2
2023/12/30 00:01:49;;;;;;;8.20;2.15;;;18.60;49.00;;;;;;5094801;28;20282;-62
2023/12/30 00:04:15;;;;;;;11.45;2.85;;;18.60;49.10;;;;;;5094462;28;20300;-63
2023/12/30 00:06:43;;;;;;;9.70;2.30;;;18.60;49.10;;;;;;5094714;28;20281;-63
2023/12/30 00:09:10;;;;;;;9.57;2.83;;;18.60;49.00;;;;;;5094634;28;20252;-63
2023/12/30 00:11:37;;;;;;;11.60;2.83;;;18.60;49.00;;;;;;5094242;28;20221;-62
2023/12/30 00:14:05;;;;;;;9.88;2.50;;;18.60;49.00;;;;;;5094673;28;20297;-62
2023/12/30 00:16:32;;;;;;;9.75;2.53;;;18.60;49.10;;;;;;5094121;28;20668;-62
2023/12/30 00:18:59;;;;;;;10.73;2.65;;;18.60;49.10;;;;;;5094302;28;20308;-62
2023/12/30 00:21:26;;;;;;;9.90;2.17;;;18.60;49.00;;;;;;5093967;28;20312;-63
2023/12/30 00:23:53;;;;;;;10.65;2.72;;;18.60;49.10;;;;;;5094006;28;20774;-63
2023/12/30 00:26:20;;;;;;;12.57;2.63;;;18.60;49.10;;;;;;5093827;28;20277;-63
2023/12/30 00:28:47;;;;;;;12.05;2.42;;;18.60;49.10;;;;;;5094140;28;20217;-63
2023/12/30 00:31:23;;;;;;;9.80;2.20;;;18.50;49.00;;;;;;5094137;28;20188;-63
2023/12/30 00:33:50;;;;;;;8.85;2.30;;;18.50;49.00;;;;;;5093939;28;20300;-62
2023/12/30 00:36:17;;;;;;;6.55;2.22;;;18.50;49.10;;;;;;5093614;28;20190;-62
2023/12/30 00:38:44;;;;;;;12.75;2.67;;;18.50;49.00;;;;;;5094125;28;20301;-62
2023/12/30 00:41:13;;;;;;;8.32;2.20;;;18.50;49.10;;;;;;5093009;28;20586;-63
2023/12/30 00:43:40;;;;;;;9.02;2.63;;;18.50;49.10;;;;;;5094871;28;20228;-63
2023/12/30 00:46:07;;;;;;;8.80;2.70;;;18.50;49.10;;;;;;5113436;28;20754;-62
2023/12/30 00:48:35;;;;;;;9.50;2.33;;;18.50;49.10;;;;;;5113723;28;20235;-63
2023/12/30 00:51:02;;;;;;;10.32;2.30;;;18.50;49.10;;;;;;5113850;28;20193;-63
2023/12/30 00:53:30;;;;;;;9.88;2.20;;;18.50;49.10;;;;;;5113599;28;20300;-63
2023/12/30 00:55:57;;;;;;;9.35;2.35;;;18.50;49.10;;;;;;5113450;28;20193;-63
2023/12/30 00:58:24;;;;;;;8.75;2.28;;;18.50;49.10;;;;;;5113693;28;20309;-63
2023/12/30 01:00:51;;;;;;;11.30;2.50;;;18.50;49.30;;;;;;5113898;28;20216;-63
2023/12/30 01:03:18;;;;;;;9.07;2.30;;;18.50;49.20;;;;;;5113689;28;20303;-63
2023/12/30 01:05:46;;;;;;;9.93;2.90;;;18.50;49.20;;;;;;5113609;28;20266;-63
2023/12/30 01:08:13;;;;;;;8.75;2.25;;;18.50;49.20;;;;;;5113860;28;20307;-63
2023/12/30 01:10:40;;;;;;;9.90;2.30;;;18.40;49.10;;;;;;5113199;28;20280;-64
2023/12/30 01:13:08;;;;;;;11.75;2.45;;;18.40;49.20;;;;;;5113572;28;20209;-63
2023/12/30 01:15:36;;;;;;;7.07;1.90;;;18.40;49.10;;;;;;5113583;28;20190;-63
2023/12/30 01:18:03;;;;;;;10.00;2.53;;;18.40;49.20;;;;;;5113052;28;20641;-63
2023/12/30 01:20:30;;;;;;;10.00;2.30;;;18.40;49.20;;;;;;5113437;28;20213;-63
2023/12/30 01:22:58;;;;;;;6.65;2.25;;;18.40;49.20;;;;;;5113308;28;20699;-63
2023/12/30 01:25:25;;;;;;;10.35;2.65;;;18.40;49.20;;;;;;5113206;28;20614;-63
2023/12/30 01:27:52;;;;;;;10.02;2.28;;;18.40;49.20;;;;;;5113458;28;20221;-63
2023/12/30 01:30:19;;;;;;;9.15;2.35;;;18.40;49.20;;;;;;5113360;28;20272;-63
2023/12/30 01:32:46;;;;;;;10.43;2.38;;;18.40;49.20;;;;;;5112768;28;20307;-62
2023/12/30 01:35:14;;;;;;;8.57;2.10;;;18.40;49.20;;;;;;5113060;28;20575;-63
2023/12/30 01:37:41;;;;;;;7.88;2.25;;;18.40;49.20;;;;;;5113348;28;20217;-62
2023/12/30 01:40:10;;;;;;;10.68;2.70;;;18.40;49.20;;;;;;5112773;28;20228;-63
2023/12/30 01:42:40;;;;;;;9.30;2.72;;;18.40;49.30;;;;;;5113453;28;20304;-63
2023/12/30 01:45:08;;;;;;;10.82;2.85;;;18.40;49.30;;;;;;5113106;28;20269;-63
2023/12/30 01:47:35;;;;;;;8.20;2.35;;;18.30;49.20;;;;;;5112410;28;20315;-62
2023/12/30 01:50:03;;;;;;;9.85;2.63;;;18.40;49.30;;;;;;5113124;28;20193;-63
2023/12/30 01:52:30;;;;;;;8.00;2.05;;;18.40;49.40;;;;;;5113080;28;20323;-63
2023/12/30 01:54:57;;;;;;;12.10;2.47;;;18.40;49.30;;;;;;5112292;28;20272;-63
2023/12/30 01:57:25;;;;;;;9.70;2.65;;;18.30;49.30;;;;;;5112920;28;20273;-62
2023/12/30 01:59:53;;;;;;;8.63;2.30;;;18.40;49.40;;;;;;5112855;28;20278;-63
2023/12/30 02:02:21;;;;;;;8.68;2.50;;;18.30;49.20;;;;;;5112499;28;20200;-62
2023/12/30 02:04:48;;;;;;;7.95;2.28;;;18.30;49.30;;;;;;5112554;28;20185;-63
2023/12/30 02:07:15;;;;;;;10.45;2.80;;;18.30;49.40;;;;;;5112748;28;20268;-63
2023/12/30 02:09:42;;;;;;;8.45;2.33;;;18.30;49.40;;;;;;5112216;28;20651;-63
2023/12/30 02:12:09;;;;;;;6.65;2.42;;;18.30;49.40;;;;;;5112783;28;20288;-63
2023/12/30 02:14:37;;;;;;;9.25;2.88;;;18.30;49.40;;;;;;5112334;28;20224;-62
2023/12/30 02:17:05;;;;;;;9.10;2.05;;;18.30;49.40;;;;;;5112224;28;20567;-63
2023/12/30 02:19:33;;;;;;;7.75;2.38;;;18.30;49.40;;;;;;5112526;28;20305;-63
2023/12/30 02:22:00;;;;;;;12.10;3.28;;;18.30;49.40;;;;;;5112640;28;20303;-63
2023/12/30 02:24:28;;;;;;;10.77;2.25;;;18.30;49.50;;;;;;5112522;28;20262;-63
2023/12/30 02:26:56;;;;;;;12.43;2.40;;;18.30;49.50;;;;;;5112273;28;20631;-62
2023/12/30 02:29:23;;;;;;;11.52;3.00;;;18.30;49.50;;;;;;5112914;28;20304;-63
2023/12/30 02:31:50;;;;;;;9.52;2.47;;;18.30;49.50;;;;;;5112325;28;20224;-62
2023/12/30 02:34:18;;;;;;;9.05;2.38;;;18.30;49.50;;;;;;5110535;28;20213;-63
2023/12/30 02:36:46;;;;;;;10.20;2.42;;;18.30;49.50;;;;;;5100859;28;20197;-63
2023/12/30 02:39:13;;;;;;;10.43;2.60;;;18.30;49.50;;;;;;5091866;28;20928;-63
2023/12/30 02:41:41;;;;;;;7.97;2.17;;;18.30;49.50;;;;;;5092024;28;20221;-63
2023/12/30 02:44:09;;;;;;;11.45;2.78;;;18.30;49.50;;;;;;5092333;28;20221;-62
2023/12/30 02:46:35;;;;;;;9.30;2.33;;;18.30;49.50;;;;;;5091501;28;20326;-63
2023/12/30 02:49:04;;;;;;;11.55;2.20;;;18.20;49.40;;;;;;5092060;28;20300;-63
2023/12/30 02:51:31;;;;;;;8.07;2.33;;;18.30;49.50;;;;;;5091736;28;20681;-63
2023/12/30 02:53:59;;;;;;;8.18;1.83;;;18.20;49.40;;;;;;5091647;28;20214;-63
2023/12/30 02:56:27;;;;;;;10.52;2.67;;;18.30;49.50;;;;;;5091989;28;20273;-63
2023/12/30 02:58:57;;;;;;;7.93;1.92;;;18.30;49.50;;;;;;5092171;28;20309;-63
2023/12/30 03:01:25;;;;;;;9.75;2.28;;;18.30;49.50;;;;;;5091568;28;20314;-63
2023/12/30 03:03:54;;;;;;;9.73;2.60;;;18.20;49.40;;;;;;5091876;28;20218;-63
2023/12/30 03:06:21;;;;;;;6.78;2.08;;;18.20;49.40;;;;;;5092015;28;20186;-63
2023/12/30 03:08:48;;;;;;;9.93;2.10;;;18.20;49.40;;;;;;5095396;28;20220;-63
2023/12/30 03:11:15;;;;;;;15.07;2.70;;;18.20;49.40;;;;;;5095634;28;20190;-63
2023/12/30 03:13:42;;;;;;;11.15;2.88;;;18.20;49.40;;;;;;5095612;28;20539;-63
2023/12/30 03:16:13;;;;;;;9.52;2.33;;;18.20;49.40;;;;;;5095284;28;20282;-62
2023/12/30 03:18:40;;;;;;;9.88;2.50;;;18.20;49.40;;;;;;5095670;28;20214;-63
2023/12/30 03:21:08;;;;;;;9.75;2.55;;;18.20;49.50;;;;;;5094999;28;20786;-63
2023/12/30 03:23:36;;;;;;;7.90;2.05;;;18.20;49.50;;;;;;5095321;28;20220;-62
2023/12/30 03:26:03;;;;;;;6.78;2.17;;;18.20;49.50;;;;;;5095395;28;20269;-63
2023/12/30 03:28:30;;;;;;;9.50;2.85;;;18.20;49.40;;;;;;5095138;28;20783;-63
2023/12/30 03:30:57;;;;;;;8.52;2.38;;;18.20;49.60;;;;;;5095085;28;20277;-63
2023/12/30 03:33:26;;;;;;;6.35;2.47;;;18.20;49.50;;;;;;5095415;28;20304;-63
2023/12/30 03:35:53;;;;;;;8.43;2.22;;;18.20;49.70;;;;;;5095263;28;20285;-63
2023/12/30 03:38:20;;;;;;;13.40;2.88;;;18.20;49.60;;;;;;5094980;28;20210;-63
2023/12/30 03:40:47;;;;;;;7.28;2.05;;;18.10;49.50;;;;;;5094977;28;20260;-63
2023/12/30 03:43:14;;;;;;;8.93;2.03;;;18.20;49.70;;;;;;5095150;28;20308;-63
2023/12/30 03:45:41;;;;;;;8.90;2.40;;;18.10;49.70;;;;;;5100376;28;20280;-63
2023/12/30 03:48:09;;;;;;;7.53;2.40;;;18.20;49.70;;;;;;5100132;28;20344;-63
2023/12/30 03:50:37;;;;;;;9.52;2.25;;;18.20;49.80;;;;;;5112139;28;20427;-62
2023/12/30 03:53:05;;;;;;;8.27;2.42;;;18.20;49.80;;;;;;5111979;28;20222;-63
2023/12/30 03:55:31;;;;;;;9.68;2.13;;;18.20;49.80;;;;;;5094915;28;20193;-63
2023/12/30 03:57:58;;;;;;;10.45;2.25;;;18.20;49.80;;;;;;5094751;28;20304;-63
2023/12/30 04:00:25;;;;;;;9.18;2.55;;;18.10;49.70;;;;;;5094605;28;20198;-63
2023/12/30 04:02:52;;;;;;;11.75;2.60;;;18.10;49.70;;;;;;5094427;28;20304;-63
2023/12/30 04:05:19;;;;;;;6.80;2.30;;;18.10;49.70;;;;;;5094658;28;20277;-64
2023/12/30 04:07:47;;;;;;;7.40;2.10;;;18.10;49.70;;;;;;5094181;28;20224;-62
2023/12/30 04:10:17;;;;;;;10.15;2.88;;;18.10;49.80;;;;;;5094634;28;20292;-62
2023/12/30 04:12:44;;;;;;;7.40;2.00;;;18.10;49.80;;;;;;5094237;28;20218;-63
2023/12/30 04:15:11;;;;;;;9.50;2.60;;;18.10;49.80;;;;;;5094253;28;20248;-63
2023/12/30 04:17:38;;;;;;;8.07;2.03;;;18.10;49.80;;;;;;5093626;28;20776;-63
2023/12/30 04:20:06;;;;;;;12.52;3.00;;;18.10;50.50;;;;;;5094426;28;20225;-63
2023/12/30 04:22:33;;;;;;;8.65;2.33;;;18.10;49.90;;;;;;5093692;28;20214;-63
2023/12/30 04:25:02;;;;;;;11.15;2.25;;;18.10;49.90;;;;;;5094100;28;20269;-63
2023/12/30 04:27:29;;;;;;;8.23;2.22;;;18.10;49.90;;;;;;5093771;28;20733;-63
2023/12/30 04:29:56;;;;;;;9.48;2.67;;;18.10;49.90;;;;;;5094042;28;20186;-63
2023/12/30 04:32:24;;;;;;;7.53;2.45;;;18.10;50.00;;;;;;5093656;28;20277;-62
2023/12/30 04:34:51;;;;;;;9.05;2.67;;;18.10;50.00;;;;;;5093832;28;20608;-63
2023/12/30 04:37:20;;;;;;;9.77;2.20;;;18.10;50.00;;;;;;5093898;28;20277;-63
2023/12/30 04:39:47;;;;;;;9.15;2.65;;;18.10;50.10;;;;;;5093872;28;20280;-62
2023/12/30 04:42:16;;;;;;;12.43;2.47;;;18.10;50.10;;;;;;5093792;28;20222;-63
2023/12/30 04:44:43;;;;;;;8.38;2.15;;;18.10;50.10;;;;;;5094029;28;20249;-63
2023/12/30 04:47:09;;;;;;;8.73;2.63;;;18.10;50.10;;;;;;5093313;28;20304;-63
2023/12/30 04:49:36;;;;;;;8.55;2.28;;;18.10;50.10;;;;;;5093582;28;20653;-63
2023/12/30 04:52:03;;;;;;;8.00;2.05;;;18.10;50.20;;;;;;5093434;28;20744;-63
2023/12/30 04:54:31;;;;;;;8.85;2.33;;;18.10;50.20;;;;;;5093711;28;20304;-63
2023/12/30 04:56:58;;;;;;;5.63;1.88;;;18.10;50.20;;;;;;5093399;28;20193;-63
2023/12/30 04:59:27;;;;;;;7.65;2.08;;;18.10;50.20;;;;;;5093499;28;20218;-63
2023/12/30 05:01:54;;;;;;;7.10;2.05;;;18.00;50.10;;;;;;5093277;28;20214;-63
2023/12/30 05:04:21;;;;;;;8.35;2.40;;;18.10;50.20;;;;;;5093445;28;20210;-63
2023/12/30 05:06:47;;;;;;;10.45;1.92;;;18.00;50.20;;;;;;5093498;28;20842;-63
2023/12/30 05:09:15;;;;;;;5.55;2.22;;;18.00;50.20;;;;;;5093060;28;20657;-63
2023/12/30 05:11:44;;;;;;;10.32;2.42;;;18.00;50.20;;;;;;5093567;28;20194;-63
2023/12/30 05:14:12;;;;;;;8.23;2.08;;;18.00;50.20;;;;;;5093575;28;20221;-63
2023/12/30 05:16:47;;;;;;;7.25;2.00;;;18.00;50.20;;;;;;5092887;28;20186;-62
2023/12/30 05:19:13;;;;;;;9.13;2.35;;;18.00;50.20;;;;;;5093451;28;20304;-63
2023/12/30 05:21:40;;;;;;;7.70;2.15;;;18.00;50.20;;;;;;5093435;28;20217;-63
2023/12/30 05:24:07;;;;;;;9.23;2.15;;;18.00;50.30;;;;;;5093244;28;20305;-63
2023/12/30 05:26:34;;;;;;;7.22;2.28;;;18.00;50.30;;;;;;5093149;28;20269;-62
2023/12/30 05:29:01;;;;;;;8.98;2.10;;;18.00;50.30;;;;;;5092519;28;20305;-63
2023/12/30 05:31:28;;;;;;;10.45;2.90;;;18.00;51.00;;;;;;5092617;28;20197;-63
2023/12/30 05:33:56;;;;;;;9.30;2.60;;;18.00;50.40;;;;;;5093114;28;20214;-63
2023/12/30 05:36:23;;;;;;;9.45;2.20;;;18.00;50.40;;;;;;5092998;28;20269;-63
2023/12/30 05:38:50;;;;;;;6.03;1.95;;;18.00;51.00;;;;;;5092537;28;20209;-63
2023/12/30 05:41:17;;;;;;;7.88;2.00;;;18.00;50.30;;;;;;5092759;28;20297;-63
2023/12/30 05:43:44;;;;;;;7.00;1.80;;;18.10;50.30;;;;;;5092898;28;20423;-63
2023/12/30 05:46:16;;;;;;;6.03;1.98;;;18.10;50.30;;;;;;5092241;28;20186;-62
2023/12/30 05:48:43;;;;;;;6.03;1.77;;;18.30;50.50;;;;;;5092659;28;20218;-63
2023/12/30 05:51:12;;;;;;;5.15;1.83;;;18.40;50.40;;;;;;5092411;28;20292;-63
2023/12/30 05:53:40;;;;;;;4.57;1.40;;;18.50;50.20;;;;;;5092455;28;20217;-63
2023/12/30 05:56:07;;;;;;;5.80;1.90;;;18.60;50.10;;;;;;5092661;28;20297;-63
2023/12/30 05:58:35;;;;;;;5.70;1.92;;;18.70;49.80;;;;;;5092343;28;20770;-62
2023/12/30 06:01:02;;;;;;;4.45;1.48;;;18.80;49.90;;;;;;5092153;28;20186;-63
2023/12/30 06:03:29;;;;;;;5.28;1.60;;;19.00;49.90;;;;;;5092363;28;20600;-63
2023/12/30 06:05:55;;;;;;;6.80;1.98;;;19.10;49.70;;;;;;5092136;28;20727;-63
2023/12/30 06:08:24;;;;;;;7.25;1.85;;;19.20;49.50;;;;;;5091922;28;20316;-62
2023/12/30 06:10:53;;;;;;;8.10;2.00;;;19.30;49.40;;;;;;5092160;28;20218;-63
2023/12/30 06:13:20;;;;;;;4.00;1.58;;;19.30;49.30;;;;;;5092397;28;20217;-62
2023/12/30 06:15:49;;;;;;;3.67;1.73;;;19.40;49.20;;;;;;5092047;28;20320;-63
2023/12/30 06:18:16;;;;;;;7.07;2.03;;;19.40;49.10;;;;;;5092395;28;20222;-63
2023/12/30 06:20:46;;;;;;;6.53;1.88;;;19.40;49.00;;;;;;5092089;28;20193;-63
2023/12/30 06:23:13;;;;;;;5.80;2.00;;;19.40;49.00;;;;;;5091927;28;20239;-63
2023/12/30 06:25:41;;;;;;;4.93;1.75;;;19.40;48.90;;;;;;5092356;28;20273;-62
2023/12/30 06:28:08;;;;;;;7.13;2.03;;;19.40;49.60;;;;;;5092149;28;20305;-63
2023/12/30 06:30:35;;;;;;;5.65;1.85;;;19.30;48.90;;;;;;5092004;28;20193;-62
2023/12/30 06:33:06;;;;;;;6.68;2.33;;;19.30;49.00;;;;;;5092079;28;20246;-63
2023/12/30 06:35:34;;;;;;;4.90;1.77;;;19.30;49.00;;;;;;5092332;28;20284;-63
2023/12/30 06:38:01;;;;;;;5.90;1.63;;;19.30;49.20;;;;;;5091809;28;20216;-63
2023/12/30 06:40:28;;;;;;;4.15;1.58;;;19.20;49.10;;;;;;5092889;28;20281;-63
2023/12/30 06:42:56;;;;;;;4.05;1.63;;;19.20;49.10;;;;;;5095980;28;20316;-63
2023/12/30 06:45:23;;;;;;;5.22;1.70;;;19.10;49.10;;;;;;5095958;28;20444;-62
2023/12/30 06:47:50;;;;;;;11.82;2.50;;;19.10;49.20;;;;;;5095844;28;20312;-63
2023/12/30 06:50:19;;;;;;;5.88;1.90;;;19.10;49.20;;;;;;5096364;28;20376;-62
2023/12/30 06:52:46;;;;;;;7.20;1.92;;;19.00;49.20;;;;;;5095418;28;20278;-63
2023/12/30 06:55:14;;;;;;;6.50;1.63;;;19.00;49.30;;;;;;5096135;28;20654;-63
2023/12/30 06:57:41;;;;;;;8.48;1.90;;;19.00;49.30;;;;;;5095562;28;20653;-62
2023/12/30 07:00:10;;;;;;;8.13;2.17;;;18.90;50.10;;;;;;5095646;28;20190;-63
2023/12/30 07:02:37;;;;;;;5.07;1.80;;;18.90;49.50;;;;;;5095513;28;20309;-62
2023/12/30 07:05:05;;;;;;;5.90;2.17;;;18.80;49.40;;;;;;5095749;28;20217;-62
2023/12/30 07:07:32;;;;;;;6.28;1.70;;;18.80;49.50;;;;;;5095725;28;20269;-63
2023/12/30 07:09:59;;;;;;;6.43;2.00;;;18.80;49.50;;;;;;5095398;28;20674;-62
2023/12/30 07:12:26;;;;;;;6.68;1.77;;;18.70;49.50;;;;;;5095413;28;20285;-63
2023/12/30 07:14:52;;;;;;;7.13;1.92;;;18.70;49.60;;;;;;5095293;28;20300;-62
2023/12/30 07:17:21;;;;;;;6.05;1.60;;;18.70;49.80;;;;;;5095586;28;20190;-63
2023/12/30 07:19:47;;;;;;;6.82;1.85;;;18.70;49.80;;;;;;5095428;28;20224;-63
2023/12/30 07:22:19;;;;;;;5.47;1.58;;;18.70;49.80;;;;;;5095152;28;20218;-63
2023/12/30 07:24:46;;;;;;;5.63;1.88;;;18.60;49.80;;;;;;5095391;28;20224;-63
2023/12/30 07:27:13;;;;;;;7.85;1.90;;;18.60;49.70;;;;;;5095427;28;20191;-63
2023/12/30 07:29:39;;;;;;;5.25;1.70;;;18.50;49.70;;;;;;5094973;28;20225;-62
2023/12/30 07:32:07;;;;;;;6.90;2.13;;;18.50;49.80;;;;;;5095096;28;20276;-62
2023/12/30 07:34:35;;;;;;;6.68;2.00;;;18.50;49.90;;;;;;5095394;28;20304;-63
2023/12/30 07:37:02;;;;;;;9.00;2.08;;;18.50;50.00;;;;;;5094777;28;20225;-63
2023/12/30 07:39:29;;;;;;;5.05;1.67;;;18.50;50.10;;;;;;5094907;28;20592;-63
2023/12/30 07:41:56;;;;;;;5.68;1.85;;;18.40;50.00;;;;;;5095120;28;20306;-62
2023/12/30 07:44:22;;;;;;;6.97;1.92;;;18.40;50.00;;;;;;5094789;28;20305;-63
2023/12/30 07:46:49;;;;;;;6.65;1.92;;;18.40;50.10;;;;;;5094791;28;20321;-63
2023/12/30 07:49:17;;;;;;;8.95;2.33;;;18.40;50.80;;;;;;5095095;28;20308;-63
2023/12/30 07:51:45;;;;;;;7.53;1.90;;;18.40;50.20;;;;;;5094607;28;20640;-63
2023/12/30 07:54:12;;;;;;;5.53;2.03;;;18.40;50.30;;;;;;5094393;28;20220;-63
2023/12/30 07:56:39;;;;;;;7.55;1.90;;;18.30;50.20;;;;;;5094861;28;20552;-63
2023/12/30 07:59:06;;;;;;;6.95;1.83;;;18.40;50.40;;;;;;5094654;28;20431;-63
2023/12/30 08:01:33;;;;;;;7.35;1.70;;;18.30;50.40;;;;;;5094866;28;20623;-62
2023/12/30 08:04:00;;;;;;;6.85;1.95;;;18.30;50.40;;;;;;5094336;28;20229;-62
2023/12/30 08:06:27;;;;;;;8.55;1.95;;;18.30;50.40;;;;;;5094426;28;20221;-63
2023/12/30 08:08:55;;;;;;;5.60;1.67;;;18.30;50.50;;;;;;5094560;28;20296;-63
2023/12/30 08:11:22;;;;;;;5.85;1.70;;;18.30;50.50;;;;;;5094887;28;20186;-63
2023/12/30 08:13:48;;;;;;;6.95;2.22;;;18.30;50.50;;;;;;5094309;28;20214;-63
2023/12/30 08:16:15;;;;;;;6.10;1.90;;;18.30;50.50;;;;;;5094140;28;20281;-62
2023/12/30 08:18:41;;;;;;;7.70;2.00;;;18.30;50.50;;;;;;5094139;28;20661;-62
2023/12/30 08:21:08;;;;;;;5.13;1.70;;;18.20;50.50;;;;;;5094078;28;20284;-63
2023/12/30 08:23:35;;;;;;;5.70;1.80;;;18.20;50.50;;;;;;5094085;28;20317;-63
2023/12/30 08:26:03;;;;;;;5.47;1.92;;;18.20;50.50;;;;;;5094381;28;20278;-63
2023/12/30 08:28:30;;;;;;;8.07;1.95;;;18.20;50.60;;;;;;5093878;28;20228;-63
2023/12/30 08:30:59;;;;;;;6.15;1.83;;;18.20;50.60;;;;;;5094166;28;20276;-62
2023/12/30 08:33:26;;;;;;;6.70;1.73;;;18.20;50.70;;;;;;5094169;28;20210;-63
2023/12/30 08:35:52;;;;;;;4.50;1.60;;;18.20;50.70;;;;;;5093469;28;20728;-62
2023/12/30 08:38:19;;;;;;;6.85;1.73;;;18.20;50.80;;;;;;5094083;28;20297;-63
2023/12/30 08:40:46;;;;;;;5.47;2.03;;;18.10;50.70;;;;;;5093608;28;20724;-62
2023/12/30 08:43:14;;;;;;;6.07;1.80;;;18.10;50.80;;;;;;5093509;28;20308;-63
2023/12/30 08:45:41;;;;;;;7.32;1.70;;;18.20;50.90;;;;;;5093879;28;20191;-63
2023/12/30 08:48:08;;;;;;;7.20;2.03;;;18.10;50.80;;;;;;5093511;28;20316;-63
2023/12/30 08:50:35;;;;;;;4.78;1.60;;;18.20;50.80;;;;;;5093505;28;20273;-64
2023/12/30 08:53:02;;;;;;;5.97;1.60;;;18.20;50.70;;;;;;5093784;28;20296;-63
2023/12/30 08:55:29;;;;;;;4.32;1.65;;;18.30;50.80;;;;;;5093946;28;20268;-63
2023/12/30 08:57:55;;;;;;;4.15;1.40;;;18.30;50.70;;;;;;5093382;28;20596;-63
2023/12/30 09:00:24;;;;;;;7.28;1.75;;;18.40;51.30;;;;;;5093638;28;20188;-63
2023/12/30 09:02:55;;;;;;;5.03;1.50;;;18.50;50.50;;;;;;5093196;28;20309;-62
2023/12/30 09:05:22;;;;;;;3.15;1.30;;;18.70;50.50;;;;;;5092108;28;20193;-63
2023/12/30 09:07:49;;;;;;;6.63;1.80;;;18.80;50.30;;;;;;5093421;28;20285;-63
2023/12/30 09:10:17;;;;;;;3.63;1.50;;;18.90;50.10;;;;;;5093226;28;20186;-63
2023/12/30 09:12:44;;;;;;;4.88;1.45;;;19.00;50.10;;;;;;5092599;28;20656;-62
2023/12/30 09:15:11;;;;;;;4.35;1.77;;;19.20;50.10;;;;;;5093362;28;20277;-62
2023/12/30 09:17:39;;;;;;;6.20;1.77;;;19.30;49.90;;;;;;5093336;28;20225;-62
2023/12/30 09:20:07;;;;;;;3.00;1.35;;;19.40;49.80;;;;;;5093023;28;20301;-62
2023/12/30 09:22:34;;;;;;;5.38;1.52;;;19.50;49.50;;;;;;5093233;28;20249;-63
2023/12/30 09:25:01;;;;;;;4.25;1.55;;;19.60;49.30;;;;;;5093017;28;20300;-62
2023/12/30 09:27:28;;;;;;;3.38;1.50;;;19.80;49.20;;;;;;5092862;28;20613;-62
2023/12/30 09:29:55;;;;;;;5.07;1.52;;;19.90;49.10;;;;;;5092822;28;20300;-63
2023/12/30 09:32:23;;;;;;;4.13;1.30;;;20.00;48.90;;;;;;5093033;28;20277;-63
2023/12/30 09:34:51;;;;;;;5.60;1.67;;;20.10;48.80;;;;;;5092642;28;20218;-62
2023/12/30 09:37:19;;;;;;;6.40;1.88;;;20.10;48.60;;;;;;5092635;28;20281;-62
2023/12/30 09:39:46;;;;;;;5.07;1.42;;;20.20;48.70;;;;;;5093057;28;20297;-63
2023/12/30 09:42:13;;;;;;;4.72;1.40;;;20.20;48.60;;;;;;5092374;28;20194;-62
2023/12/30 09:44:41;;;;;;;5.32;1.70;;;20.20;48.60;;;;;;5092842;28;20300;-62
2023/12/30 09:47:10;;;;;;;5.43;1.85;;;20.10;48.50;;;;;;5092663;28;20317;-62
2023/12/30 09:49:37;;;;;;;3.13;1.42;;;20.10;48.60;;;;;;5092683;28;20480;-63
2023/12/30 09:52:06;;;;;;;3.88;1.40;;;20.00;48.50;;;;;;5092494;28;20723;-62
2023/12/30 09:54:33;;;;;;;4.35;1.73;;;20.00;48.50;;;;;;5092390;28;20221;-62
2023/12/30 09:57:02;;;;;;;4.07;1.58;;;19.90;48.60;;;;;;5091912;28;20656;-62
2023/12/30 09:59:30;;;;;;;3.85;1.27;;;19.90;48.70;;;;;;5092555;28;20218;-63
2023/12/30 10:01:57;;;;;;;5.15;1.50;;;19.90;48.80;;;;;;5092664;28;20251;-62
2023/12/30 10:04:24;;;;;;;4.30;1.50;;;19.90;48.90;;;;;;5092251;28;20308;-62
2023/12/30 10:06:52;;;;;;;8.32;1.65;;;19.90;48.80;;;;;;5092436;28;20272;-62
2023/12/30 10:09:22;;;;;;;5.45;1.90;;;19.90;48.80;;;;;;5092664;28;20316;-62
2023/12/30 10:11:49;;;;;;;5.40;1.55;;;20.00;48.80;;;;;;5092184;28;20190;-61
2023/12/30 10:14:16;;;;;;;4.50;1.38;;;20.00;48.70;;;;;;5092497;28;20301;-62
2023/12/30 10:16:44;;;;;;;4.68;1.55;;;20.00;48.60;;;;;;5091852;28;20243;-62
2023/12/30 10:19:13;;;;;;;3.75;1.33;;;20.00;48.60;;;;;;5092136;28;20301;-63
2023/12/30 10:21:40;;;;;;;5.45;1.77;;;20.00;48.50;;;;;;5092334;28;20190;-63
2023/12/30 10:24:08;;;;;;;5.10;1.58;;;20.00;48.60;;;;;;5092469;28;20316;-62
2023/12/30 10:26:39;;;;;;;4.45;1.52;;;19.90;48.50;;;;;;5091686;28;20722;-62
2023/12/30 10:29:07;;;;;;;5.80;1.60;;;19.90;48.60;;;;;;5092304;28;20217;-62
2023/12/30 10:31:34;;;;;;;3.60;1.75;;;19.80;48.60;;;;;;5092229;28;20273;-62
2023/12/30 10:34:01;;;;;;;4.10;1.50;;;19.80;48.70;;;;;;5091828;28;20648;-62
2023/12/30 10:36:28;;;;;;;4.60;1.50;;;19.70;48.70;;;;;;5092194;28;20278;-61
2023/12/30 10:38:56;;;;;;;5.18;1.70;;;19.60;48.70;;;;;;5092333;28;20214;-62
2023/12/30 10:41:23;;;;;;;6.00;1.88;;;19.60;48.90;;;;;;5091525;28;20282;-62
2023/12/30 10:43:51;;;;;;;5.97;1.60;;;19.50;48.90;;;;;;5092222;28;20668;-62
2023/12/30 10:46:20;;;;;;;5.20;1.55;;;19.50;49.00;;;;;;5092196;28;20198;-62
2023/12/30 10:48:55;;;;;;;5.55;1.50;;;19.40;49.10;;;;;;5091381;28;20704;-62
2023/12/30 10:51:25;;;;;;;3.80;1.60;;;19.40;49.20;;;;;;5091865;28;20636;-62
2023/12/30 10:54:01;;;;;;;4.15;1.40;;;19.40;49.20;;;;;;5091710;28;20707;-62
2023/12/30 10:56:30;;;;;;;4.82;1.70;;;19.30;49.30;;;;;;5091725;28;20190;-62
2023/12/30 10:59:01;;;;;;;4.85;1.50;;;19.20;49.30;;;;;;5091792;28;20246;-62
2023/12/30 11:01:29;;;;;;;4.00;1.52;;;19.20;49.40;;;;;;5092010;28;20232;-62
2023/12/30 11:03:57;;;;;;;5.65;1.80;;;19.20;49.40;;;;;;5091515;28;20237;-62
2023/12/30 11:06:29;;;;;;;7.22;1.95;;;19.10;49.50;;;;;;5092029;28;20281;-62
2023/12/30 11:09:00;;;;;;;5.07;1.45;;;19.10;49.60;;;;;;5092024;28;20300;-62
2023/12/30 11:11:27;;;;;;;5.20;1.50;;;19.10;49.60;;;;;;5091966;28;20218;-62
2023/12/30 11:13:58;;;;;;;6.95;1.90;;;19.00;49.60;;;;;;5091630;28;20601;-62
2023/12/30 11:16:26;;;;;;;4.60;1.70;;;19.00;49.80;;;;;;5091632;28;20668;-62
2023/12/30 11:18:55;;;;;;;4.95;1.45;;;19.00;49.90;;;;;;5091203;28;20225;-63
2023/12/30 11:21:37;;;;;;;7.57;1.58;;;18.90;49.90;;;;;;5091727;28;20251;-63
2023/12/30 11:24:07;;;;;;;5.93;1.40;;;18.90;50.00;;;;;;5091770;28;20233;-62
2023/12/30 11:26:35;;;;;;;4.85;1.60;;;18.90;50.00;;;;;;5091110;28;20696;-63
2023/12/30 11:29:03;;;;;;;5.93;1.70;;;18.80;49.90;;;;;;5094461;28;20213;-62
2023/12/30 11:31:36;;;;;;;6.20;1.52;;;18.80;49.90;;;;;;5095461;28;20204;-61
2023/12/30 11:34:04;;;;;;;4.18;1.90;;;18.80;49.90;;;;;;5094785;28;20308;-63
2023/12/30 11:36:31;;;;;;;6.85;1.77;;;18.70;49.80;;;;;;5094980;28;20182;-62
2023/12/30 11:38:59;;;;;;;6.00;1.50;;;18.70;50.30;;;;;;5095065;28;20774;-63
2023/12/30 11:41:27;;;;;;;5.28;1.98;;;18.70;50.10;;;;;;5094841;28;20202;-63
2023/12/30 11:43:55;;;;;;;4.57;1.50;;;18.70;50.20;;;;;;5094780;28;20691;-62
2023/12/30 11:46:22;;;;;;;6.55;1.90;;;18.70;50.20;;;;;;5094819;28;20273;-62
2023/12/30 11:48:50;;;;;;;5.25;1.52;;;18.60;50.20;;;;;;5094735;28;20220;-63
2023/12/30 11:51:21;;;;;;;5.07;1.60;;;18.60;50.30;;;;;;5095318;28;20205;-62
2023/12/30 11:53:48;;;;;;;4.70;1.70;;;18.60;50.40;;;;;;5094837;28;20304;-62
2023/12/30 11:56:16;;;;;;;8.88;2.05;;;18.60;50.40;;;;;;5094264;28;20196;-63
2023/12/30 11:58:43;;;;;;;6.38;1.73;;;18.60;50.50;;;;;;5094825;28;20225;-62
2023/12/30 12:01:10;;;;;;;5.93;2.00;;;18.50;50.50;;;;;;5094551;28;20282;-63
2023/12/30 12:03:38;;;;;;;8.30;1.73;;;18.50;50.60;;;;;;5094038;28;20676;-63
2023/12/30 12:06:07;;;;;;;5.00;1.40;;;18.50;50.60;;;;;;5094300;28;20255;-63
2023/12/30 12:08:33;;;;;;;3.92;1.60;;;18.50;50.60;;;;;;5094280;28;20597;-63
2023/12/30 12:11:00;;;;;;;9.05;1.60;;;18.50;50.60;;;;;;5094355;28;20273;-63
2023/12/30 12:13:27;;;;;;;3.63;1.40;;;18.50;50.70;;;;;;5094795;28;20296;-62
2023/12/30 12:15:56;;;;;;;4.47;1.30;;;18.50;50.80;;;;;;5094505;28;20646;-63
2023/12/30 12:18:24;;;;;;;5.10;1.52;;;18.50;50.80;;;;;;5094141;28;20653;-62
2023/12/30 12:20:51;;;;;;;6.13;1.50;;;18.40;50.80;;;;;;5094076;28;20277;-63
2023/12/30 12:23:23;;;;;;;4.43;1.58;;;18.40;51.50;;;;;;5094222;28;20225;-63
2023/12/30 12:25:50;;;;;;;3.95;1.63;;;18.40;50.90;;;;;;5093586;28;20282;-62
2023/12/30 12:28:20;;;;;;;4.80;1.63;;;18.40;51.00;;;;;;5094211;28;20277;-62
2023/12/30 12:30:47;;;;;;;4.35;1.60;;;18.40;51.00;;;;;;5094460;28;20201;-62
2023/12/30 12:33:14;;;;;;;7.22;1.50;;;18.40;51.00;;;;;;5093524;28;20204;-62
2023/12/30 12:35:41;;;;;;;7.68;1.38;;;18.40;51.10;;;;;;5094190;28;20218;-63
2023/12/30 12:38:08;;;;;;;5.53;1.52;;;18.40;51.10;;;;;;5093525;28;20531;-62
2023/12/30 12:40:38;;;;;;;7.18;1.67;;;18.40;51.10;;;;;;5093601;28;20269;-63
2023/12/30 12:43:05;;;;;;;5.43;1.65;;;18.30;51.10;;;;;;5093894;28;20190;-62
2023/12/30 12:45:31;;;;;;;6.30;1.95;;;18.30;51.10;;;;;;5093488;28;20214;-62
2023/12/30 12:47:59;;;;;;;5.13;1.40;;;18.30;51.10;;;;;;5093442;28;20225;-63